Darwin International Airport
YPDN : now visible

Airfield :











YOU CAN JOIN US ON...

 
LOGIN :

Register | Disclaimer

   EN    FR    IT 

 









Legend :    VFR   Marginal VFR   IFR   Intensive IFR   Very Intensive IFR
Visi :
Ceiling :
>= 8 km
>= 3000ft
5 to 8 km
1000 to 3000 ft
1500m to 5 km
500 to 1000 ft
800 to 1500m
200 to 500 ft
< 800m
< 200 ft
Symbols :   Thunderstorms  Fog  Heavy snow  Heavy precipitations  Wind > 20 kt






- Airport Elevation : 103 ft
- IATA code : DRW


YPDN - Darwin International

CURRENT METAR :
  • 021600Z AUTO 15007KT 9999 // NCD 21/15 Q1012

EXPIRED METARs :
  • 021530Z AUTO 15007KT 9999 // NCD 21/15 Q1013
  • 021500Z AUTO 16007KT 9999 // NCD 22/16 Q1013
  • 021430Z 16006KT CAVOK 22/16 Q1013
  • 020300Z 15011KT CAVOK 23/13 Q1013
  • 021400Z 16007KT CAVOK 22/16 Q1013
  • 021330Z 15007KT CAVOK 22/16 Q1013

TAF TAF YPDN
Valid from the 02 at 15:00 until the 03 at 18:00 UTC


021405Z 0215/0318 16010KT CAVOK
FM030000 13014KT CAVOK
FM030500 18010KT CAVOK
FM031000 16014KT CAVOK
YBBB FIR / Oceania



MET'MAP, your aeronautical weather chart ! - Copyright ORBIFLY December 2007 - Disclaimer

ORBIFLY MET'MAP TEAM :

Programming & Development : Alexandra Zaïnal
Original concept : Baudouin d'Aumeries
Technical & hardware support : Manuel Goepfert
Assistance : Marc-Olivier Méhu




SOURCES & CREDITS :

   NOAA       Earth
Advisory